Time;durP1;ratioP1;P1;durP2;ratioP2;P2;SDS_P1;SDS_P2;PMS_P1;PMS_P2;Temp;Humidity;BMP_temperature;BMP_pressure;BME280_temperature;BME280_humidity;BME280_pressure;Samples;Min_cycle;Max_cycle;Signal;HPM_P1;HPM_P2
2023/07/03 00:01:26;;;;;;;6.20;3.90;;;;;;;24.45;56.61;99661.13;108034;1260;60340;-78
2023/07/03 00:03:54;;;;;;;5.30;4.20;;;;;;;24.41;56.79;99661.60;107933;1260;73953;-77
2023/07/03 00:06:22;;;;;;;7.20;4.10;;;;;;;24.38;56.94;99660.77;107904;1259;72949;-77
2023/07/03 00:08:52;;;;;;;5.10;4.00;;;;;;;24.35;57.01;99659.66;107917;1258;71704;-75
2023/07/03 00:11:20;;;;;;;6.20;4.30;;;;;;;24.32;57.03;99658.99;107979;1257;61784;-77
2023/07/03 00:13:48;;;;;;;5.10;3.80;;;;;;;24.28;57.15;99654.20;107857;1258;60396;-78
2023/07/03 00:16:14;;;;;;;4.70;3.90;;;;;;;24.25;57.35;99654.47;107938;1257;74574;-77
2023/07/03 00:18:42;;;;;;;6.40;4.10;;;;;;;24.21;57.48;99648.80;107927;1257;72745;-77
2023/07/03 00:21:08;;;;;;;5.60;3.90;;;;;;;24.15;57.78;99645.38;107923;1257;72550;-77
2023/07/03 00:23:36;;;;;;;4.50;4.10;;;;;;;24.08;57.83;99648.71;107911;1258;62027;-77
2023/07/03 00:26:03;;;;;;;6.30;4.00;;;;;;;24.04;57.93;99653.51;107937;1258;60318;-77
2023/07/03 00:28:29;;;;;;;5.80;4.30;;;;;;;24.03;58.04;99650.83;107979;1256;73948;-77
2023/07/03 00:30:57;;;;;;;6.10;4.20;;;;;;;23.99;58.32;99652.89;107955;1257;72734;-76
2023/07/03 00:33:24;;;;;;;5.70;3.90;;;;;;;23.95;58.42;99652.52;107939;1258;71786;-77
2023/07/03 00:35:51;;;;;;;6.30;4.30;;;;;;;23.90;58.60;99648.23;107904;1258;63605;-77
2023/07/03 00:38:19;;;;;;;7.10;4.10;;;;;;;23.85;58.71;99651.52;107990;1257;59158;-76
2023/07/03 00:40:46;;;;;;;7.20;4.20;;;;;;;23.78;59.03;99650.56;107973;1256;73320;-76
2023/07/03 00:43:14;;;;;;;5.20;4.10;;;;;;;23.75;59.14;99647.09;108055;1258;72755;-76
2023/07/03 00:45:41;;;;;;;5.80;4.10;;;;;;;23.71;59.14;99651.71;107921;1256;74400;-78
2023/07/03 00:48:08;;;;;;;5.70;4.30;;;;;;;23.68;59.20;99655.52;107915;1256;62074;-77
2023/07/03 00:50:35;;;;;;;5.00;4.40;;;;;;;23.65;59.33;99658.70;107786;1258;59395;-77
2023/07/03 00:53:04;;;;;;;7.60;4.10;;;;;;;23.62;59.63;99660.80;107941;1258;73953;-77
2023/07/03 00:55:31;;;;;;;5.80;4.40;;;;;;;23.57;59.71;99660.05;108016;1257;72820;-77
2023/07/03 00:57:58;;;;;;;7.60;4.60;;;;;;;23.54;59.78;99661.47;107955;1257;73117;-76
2023/07/03 01:00:27;;;;;;;6.10;4.30;;;;;;;23.51;59.98;99664.70;107906;1257;61688;-76
2023/07/03 01:03:07;;;;;;;6.50;4.20;;;;;;;23.47;60.23;99664.73;107898;1256;60366;-77
2023/07/03 01:05:40;;;;;;;5.20;4.30;;;;;;;23.40;60.45;99668.89;107956;1257;73899;-77
2023/07/03 01:08:07;;;;;;;4.90;3.90;;;;;;;23.31;60.56;99674.11;107912;1257;70463;-77
2023/07/03 01:10:34;;;;;;;6.10;4.20;;;;;;;23.26;60.86;99677.30;107808;1260;72554;-78
2023/07/03 01:13:04;;;;;;;6.40;4.20;;;;;;;23.25;60.95;99673.77;107978;1257;61798;-78
2023/07/03 01:15:33;;;;;;;5.80;4.30;;;;;;;23.17;61.29;99679.48;108023;1257;60303;-76
2023/07/03 01:18:00;;;;;;;4.70;4.00;;;;;;;23.15;61.52;99678.58;107955;1257;74090;-76
2023/07/03 01:20:32;;;;;;;7.00;4.70;;;;;;;23.14;61.65;99684.65;108177;1257;71577;-77
2023/07/03 01:23:20;;;;;;;6.50;4.20;;;;;;;23.14;61.67;99686.20;108026;1257;72495;-77
2023/07/03 01:25:47;;;;;;;5.50;4.40;;;;;;;23.13;61.92;99688.83;107959;1257;60699;-78
2023/07/03 01:28:14;;;;;;;5.40;4.30;;;;;;;23.11;61.93;99694.31;108051;1257;60399;-77
2023/07/03 01:30:42;;;;;;;6.20;4.80;;;;;;;23.06;62.06;99694.23;107718;1256;73701;-77
2023/07/03 01:33:14;;;;;;;5.20;4.30;;;;;;;23.03;62.23;99699.47;107871;1257;72588;-77
2023/07/03 01:35:46;;;;;;;6.10;4.40;;;;;;;23.00;62.43;99701.20;107947;1257;72629;-77
2023/07/03 01:38:14;;;;;;;5.90;4.40;;;;;;;22.95;62.64;99705.39;107955;1257;61755;-77
2023/07/03 01:40:43;;;;;;;5.00;4.00;;;;;;;22.89;62.76;99706.27;107965;1260;60448;-78
2023/07/03 01:43:11;;;;;;;5.50;4.60;;;;;;;22.89;62.78;99706.41;108019;1257;73550;-76
2023/07/03 01:45:43;;;;;;;6.60;4.40;;;;;;;22.85;62.93;99706.89;107738;1263;71769;-77
2023/07/03 01:48:10;;;;;;;6.10;4.50;;;;;;;22.81;62.99;99706.35;107932;1257;71218;-76
2023/07/03 01:50:40;;;;;;;5.80;4.60;;;;;;;22.78;63.19;99706.60;107914;1258;60538;-76
2023/07/03 01:53:27;;;;;;;5.50;4.50;;;;;;;22.75;63.27;99705.52;107926;1256;60270;-77
2023/07/03 01:56:06;;;;;;;6.60;4.50;;;;;;;22.73;63.45;99700.27;108005;1257;73966;-76
2023/07/03 01:58:54;;;;;;;;;;;;;;;22.68;63.77;99700.98;107994;1257;72653;-77
2023/07/03 02:01:56;;;;;;;5.30;4.70;;;;;;;22.61;64.20;99701.45;107929;1257;71262;-76
2023/07/03 02:04:27;;;;;;;6.50;4.90;;;;;;;22.55;64.36;99702.34;107921;1257;62288;-77
2023/07/03 02:06:54;;;;;;;6.50;4.80;;;;;;;22.49;64.51;99704.09;107910;1257;61072;-76
2023/07/03 02:09:21;;;;;;;6.20;4.80;;;;;;;22.42;64.96;99706.73;107724;1257;73621;-77
2023/07/03 02:11:51;;;;;;;7.50;4.70;;;;;;;22.39;65.15;99706.52;107943;1257;71488;-77
2023/07/03 02:14:18;;;;;;;6.30;4.80;;;;;;;22.40;65.35;99704.82;107753;1257;72261;-77
2023/07/03 02:16:47;;;;;;;6.20;4.90;;;;;;;22.43;65.47;99707.06;107917;1257;61980;-78
2023/07/03 02:19:16;;;;;;;6.30;5.30;;;;;;;22.43;65.47;99708.23;107889;1257;60900;-76
2023/07/03 02:21:46;;;;;;;8.10;5.20;;;;;;;22.42;65.58;99711.33;107797;1262;73880;-77
2023/07/03 02:24:13;;;;;;;5.10;4.60;;;;;;;22.43;65.84;99709.48;107819;1257;72790;-76
2023/07/03 02:26:43;;;;;;;8.20;5.10;;;;;;;22.48;65.88;99717.59;107889;1257;73870;-77
2023/07/03 02:29:10;;;;;;;6.10;5.00;;;;;;;22.51;65.80;99722.14;107826;1256;61988;-77
2023/07/03 02:31:38;;;;;;;8.80;5.30;;;;;;;22.52;65.80;99722.56;107895;1257;60309;-76
2023/07/03 02:34:05;;;;;;;7.00;5.30;;;;;;;22.50;66.10;99720.73;107869;1257;72631;-78
2023/07/03 02:36:36;;;;;;;7.10;5.50;;;;;;;22.53;66.35;99719.79;107844;1260;71767;-77
2023/07/03 02:39:04;;;;;;;5.90;5.30;;;;;;;22.59;66.67;99720.75;107868;1258;72568;-77
2023/07/03 02:41:33;;;;;;;6.30;5.20;;;;;;;22.64;66.67;99719.55;107852;1257;61774;-77
2023/07/03 02:44:00;;;;;;;9.70;5.80;;;;;;;22.69;66.56;99725.02;107801;1257;60425;-76
2023/07/03 02:46:29;;;;;;;6.00;5.20;;;;;;;22.74;66.53;99726.42;107892;1257;73921;-76
2023/07/03 02:48:56;;;;;;;6.00;5.10;;;;;;;22.79;66.53;99733.29;107872;1257;71501;-77
2023/07/03 02:51:23;;;;;;;8.10;5.80;;;;;;;22.80;66.51;99732.30;107713;1257;72647;-76
2023/07/03 02:53:51;;;;;;;7.40;5.90;;;;;;;22.80;66.51;99734.17;107859;1256;60734;-76
2023/07/03 02:56:19;;;;;;;6.70;5.80;;;;;;;22.80;66.50;99737.90;107897;1257;60402;-77
2023/07/03 02:58:46;;;;;;;7.20;6.50;;;;;;;22.80;66.42;99736.41;107728;1257;73727;-76
2023/07/03 03:01:17;;;;;;;7.10;6.30;;;;;;;22.84;66.28;99737.05;107808;1260;72562;-76
2023/07/03 03:03:44;;;;;;;7.10;6.30;;;;;;;22.91;66.06;99739.05;107881;1260;71464;-77
2023/07/03 03:06:12;;;;;;;7.90;7.00;;;;;;;22.93;65.73;99743.33;107752;1263;62024;-76
2023/07/03 03:08:39;;;;;;;8.90;7.20;;;;;;;22.92;65.48;99746.18;107829;1257;60485;-76
2023/07/03 03:11:06;;;;;;;10.00;8.00;;;;;;;22.95;65.57;99747.32;107850;1257;73684;-76
2023/07/03 03:13:32;;;;;;;8.60;7.30;;;;;;;22.96;65.47;99747.73;107885;1260;72734;-77
2023/07/03 03:15:59;;;;;;;8.00;7.20;;;;;;;22.99;65.46;99754.09;107823;1256;72653;-77
2023/07/03 03:18:27;;;;;;;9.70;7.70;;;;;;;23.02;65.43;99757.11;107866;1257;62020;-76
2023/07/03 03:20:54;;;;;;;9.00;8.10;;;;;;;23.05;65.46;99759.96;107903;1257;60393;-77
2023/07/03 03:23:21;;;;;;;10.00;8.00;;;;;;;23.06;65.14;99764.97;107753;1262;73870;-76
2023/07/03 03:25:49;;;;;;;9.90;7.90;;;;;;;23.08;65.34;99762.67;107810;1257;72785;-77
2023/07/03 03:28:17;;;;;;;9.80;7.90;;;;;;;23.09;65.32;99764.23;107751;1262;72704;-77
2023/07/03 03:30:45;;;;;;;8.40;7.60;;;;;;;23.10;65.43;99763.56;107871;1257;61884;-77
2023/07/03 03:33:12;;;;;;;9.70;8.30;;;;;;;23.13;65.33;99767.75;107844;1256;60315;-76
2023/07/03 03:35:41;;;;;;;8.80;7.90;;;;;;;23.21;65.33;99771.23;107863;1257;73884;-77
2023/07/03 03:38:08;;;;;;;9.50;8.60;;;;;;;23.25;65.28;99772.47;107901;1257;72987;-77
2023/07/03 03:40:36;;;;;;;12.00;9.40;;;;;;;23.27;65.26;99776.34;107843;1258;71540;-78
2023/07/03 03:43:04;;;;;;;10.00;8.20;;;;;;;23.34;65.17;99781.68;107846;1257;62135;-76
2023/07/03 03:45:32;;;;;;;9.60;8.70;;;;;;;23.41;64.91;99787.55;107875;1257;60454;-75
2023/07/03 03:47:59;;;;;;;10.40;9.40;;;;;;;23.48;64.74;99788.53;107885;1257;72656;-77
2023/07/03 03:50:27;;;;;;;9.70;8.70;;;;;;;23.53;64.66;99787.23;107754;1257;73490;-77
2023/07/03 03:52:56;;;;;;;11.90;10.10;;;;;;;23.61;64.47;99789.31;107860;1256;71406;-77
2023/07/03 03:55:23;;;;;;;12.00;9.60;;;;;;;23.68;64.28;99790.00;107900;1257;61784;-77
2023/07/03 03:57:51;;;;;;;11.00;9.80;;;;;;;23.74;64.07;99788.39;107656;1263;61224;-77
2023/07/03 04:00:20;;;;;;;9.70;8.70;;;;;;;23.80;63.92;99786.46;107839;1256;73601;-77
2023/07/03 04:02:48;;;;;;;11.50;10.10;;;;;;;23.89;63.87;99785.60;107892;1256;72724;-77
2023/07/03 04:05:15;;;;;;;10.70;9.60;;;;;;;23.99;63.57;99786.54;107766;1257;72679;-78
2023/07/03 04:07:43;;;;;;;10.80;9.80;;;;;;;24.07;63.32;99786.28;107789;1256;61778;-77
2023/07/03 04:10:11;;;;;;;10.40;9.30;;;;;;;24.15;63.02;99793.55;107882;1257;60338;-77
2023/07/03 04:12:38;;;;;;;10.70;9.60;;;;;;;24.20;63.05;99802.36;107851;1256;73786;-77
2023/07/03 04:15:07;;;;;;;11.10;9.70;;;;;;;24.23;62.69;99811.38;107866;1257;72614;-78
2023/07/03 04:17:34;;;;;;;10.80;9.80;;;;;;;24.27;62.67;99807.06;107861;1257;72837;-77
2023/07/03 04:20:06;;;;;;;11.40;10.20;;;;;;;24.35;62.63;99800.17;107681;1257;61988;-77
2023/07/03 04:22:34;;;;;;;10.60;9.40;;;;;;;24.45;62.42;99799.09;107759;1262;60431;-78
2023/07/03 04:25:00;;;;;;;10.50;9.10;;;;;;;24.54;62.21;99800.30;107713;1257;73738;-77
2023/07/03 04:27:28;;;;;;;11.40;10.20;;;;;;;24.58;62.15;99812.67;107712;1256;72596;-77
2023/07/03 04:29:55;;;;;;;11.40;10.20;;;;;;;24.64;62.07;99817.60;107872;1257;72897;-77
2023/07/03 04:32:22;;;;;;;10.90;9.70;;;;;;;24.73;61.93;99820.61;107968;1256;62030;-76
2023/07/03 04:34:49;;;;;;;11.80;10.40;;;;;;;24.81;61.76;99819.93;107996;1256;60056;-76
2023/07/03 04:37:15;;;;;;;11.80;10.20;;;;;;;24.90;61.50;99825.58;108078;1257;72807;-76
2023/07/03 04:39:43;;;;;;;11.60;10.00;;;;;;;24.98;61.24;99835.83;108029;1257;71478;-77
2023/07/03 04:42:13;;;;;;;11.30;10.10;;;;;;;25.00;61.05;99839.59;107919;1256;71244;-77
2023/07/03 04:44:41;;;;;;;12.90;10.10;;;;;;;25.02;60.97;99840.88;107862;1256;61698;-78
2023/07/03 04:47:09;;;;;;;12.00;10.80;;;;;;;25.06;60.97;99843.02;107817;1259;60293;-77
2023/07/03 04:49:37;;;;;;;12.00;10.80;;;;;;;25.11;60.85;99845.45;107896;1256;72811;-78
2023/07/03 04:52:04;;;;;;;11.90;10.80;;;;;;;25.16;60.72;99845.76;107968;1256;71509;-79
2023/07/03 04:54:32;;;;;;;11.10;10.00;;;;;;;25.23;60.57;99847.00;107863;1257;72647;-79
2023/07/03 04:56:58;;;;;;;13.40;10.80;;;;;;;25.31;60.21;99849.13;107848;1256;61863;-78
2023/07/03 04:59:25;;;;;;;12.40;11.20;;;;;;;25.36;59.59;99858.09;107820;1257;61093;-78
2023/07/03 05:01:53;;;;;;;12.70;10.60;;;;;;;25.39;59.26;99863.05;107821;1256;74657;-77
2023/07/03 05:04:19;;;;;;;12.30;11.00;;;;;;;25.40;58.89;99862.34;107957;1257;74025;-77
2023/07/03 05:06:47;;;;;;;12.40;11.10;;;;;;;25.41;58.89;99864.23;107849;1257;72656;-76
2023/07/03 05:09:14;;;;;;;12.30;10.90;;;;;;;25.44;58.71;99866.68;107818;1256;61884;-77
2023/07/03 05:11:42;;;;;;;11.70;10.50;;;;;;;25.49;58.37;99870.73;107850;1256;61333;-76
2023/07/03 05:14:09;;;;;;;11.30;10.10;;;;;;;25.52;57.81;99877.79;107831;1257;72866;-77
2023/07/03 05:16:36;;;;;;;14.50;11.30;;;;;;;25.53;57.18;99877.62;107797;1256;72894;-77
2023/07/03 05:19:03;;;;;;;11.70;10.60;;;;;;;25.49;56.67;99882.91;107810;1256;71444;-76
2023/07/03 05:21:31;;;;;;;12.50;11.20;;;;;;;25.46;56.14;99880.36;107821;1256;61225;-77
2023/07/03 05:23:58;;;;;;;12.70;11.40;;;;;;;25.43;55.59;99879.24;107727;1257;60242;-77
2023/07/03 05:26:24;;;;;;;12.60;11.30;;;;;;;25.41;55.23;99879.78;107794;1256;74661;-78
2023/07/03 05:28:51;;;;;;;11.70;10.50;;;;;;;25.39;54.84;99884.13;107788;1256;71782;-77
2023/07/03 05:31:22;;;;;;;11.30;10.20;;;;;;;25.38;54.83;99891.30;107757;1256;72742;-77
2023/07/03 05:33:50;;;;;;;11.20;10.10;;;;;;;25.41;54.90;99900.55;107763;1256;61568;-77
2023/07/03 05:36:17;;;;;;;11.70;10.50;;;;;;;25.45;54.94;99899.10;107805;1256;61289;-77
2023/07/03 05:38:44;;;;;;;12.10;10.90;;;;;;;25.49;54.70;99903.70;107793;1256;74658;-77
2023/07/03 05:41:11;;;;;;;11.80;10.70;;;;;;;25.54;54.29;99906.23;107883;1256;72785;-77
2023/07/03 05:43:38;;;;;;;12.20;11.00;;;;;;;25.55;54.10;99904.38;107835;1256;71712;-77
2023/07/03 05:46:05;;;;;;;12.10;10.90;;;;;;;25.57;54.12;99901.49;107842;1256;61213;-78
2023/07/03 05:48:32;;;;;;;12.20;10.90;;;;;;;25.61;53.98;99911.09;107806;1257;61202;-76
2023/07/03 05:50:59;;;;;;;11.90;10.70;;;;;;;25.66;53.79;99910.44;107797;1256;74512;-77
2023/07/03 05:53:27;;;;;;;11.00;9.90;;;;;;;25.72;53.48;99915.35;107772;1256;72658;-77
2023/07/03 05:55:57;;;;;;;12.50;10.50;;;;;;;25.74;53.13;99917.02;107746;1256;72955;-77
2023/07/03 05:58:25;;;;;;;12.00;10.80;;;;;;;25.76;53.12;99924.91;107769;1256;61253;-76
2023/07/03 06:00:52;;;;;;;11.80;10.60;;;;;;;25.80;53.31;99929.11;107793;1257;61218;-76
2023/07/03 06:03:19;;;;;;;11.60;10.40;;;;;;;25.84;53.31;99929.95;107696;1257;73209;-76
2023/07/03 06:05:48;;;;;;;11.10;10.00;;;;;;;25.88;53.39;99936.17;107805;1257;72649;-77
2023/07/03 06:08:15;;;;;;;12.30;10.50;;;;;;;25.88;53.29;99939.84;107793;1260;72811;-78
2023/07/03 06:10:44;;;;;;;12.20;11.00;;;;;;;25.87;53.23;99942.42;107767;1256;61110;-77
2023/07/03 06:13:11;;;;;;;12.20;11.00;;;;;;;25.89;53.32;99935.80;107706;1260;61358;-77
2023/07/03 06:15:40;;;;;;;11.40;10.10;;;;;;;25.93;53.32;99940.98;108395;1256;74692;-77
2023/07/03 06:18:07;;;;;;;11.60;10.40;;;;;;;26.00;53.35;99937.85;107805;1256;71427;-78
2023/07/03 06:20:37;;;;;;;11.80;10.60;;;;;;;26.04;53.28;99943.90;107799;1256;72496;-78
2023/07/03 06:23:05;;;;;;;12.20;11.00;;;;;;;26.09;53.04;99946.39;107791;1256;61683;-76
2023/07/03 06:25:32;;;;;;;11.70;10.50;;;;;;;26.16;53.01;99944.58;107872;1260;61111;-77
2023/07/03 06:27:59;;;;;;;12.30;11.00;;;;;;;26.23;52.66;99944.94;107829;1257;74696;-79
2023/07/03 06:30:26;;;;;;;12.90;11.50;;;;;;;26.30;52.20;99939.21;107816;1256;72388;-78
2023/07/03 06:32:53;;;;;;;11.70;10.60;;;;;;;26.37;51.85;99942.33;107831;1256;71172;-78
2023/07/03 06:35:20;;;;;;;11.80;10.60;;;;;;;26.44;51.52;99936.98;107862;1256;61174;-77
2023/07/03 06:37:47;;;;;;;13.30;11.40;;;;;;;26.47;51.20;99934.36;107823;1256;61250;-77
2023/07/03 06:40:15;;;;;;;11.10;10.00;;;;;;;26.55;51.21;99935.91;107900;1256;74540;-79
2023/07/03 06:42:45;;;;;;;;;;;;;;;26.65;50.78;99939.67;107838;1256;71672;-78
2023/07/03 06:45:16;;;;;;;12.50;11.00;;;;;;;26.71;49.82;99949.81;107843;1256;72778;-78
2023/07/03 06:47:44;;;;;;;11.70;10.30;;;;;;;26.76;49.85;99952.04;107862;1256;61107;-77
2023/07/03 06:50:11;;;;;;;11.70;10.50;;;;;;;26.92;50.11;99961.92;107881;1256;61208;-78
2023/07/03 06:52:40;;;;;;;12.60;10.60;;;;;;;27.17;49.94;99961.77;107863;1256;73303;-76
2023/07/03 06:55:08;;;;;;;10.60;9.50;;;;;;;27.43;48.95;99964.25;107853;1256;71582;-77
2023/07/03 06:57:35;;;;;;;10.70;9.40;;;;;;;27.64;48.25;99967.48;107808;1257;64140;-78
2023/07/03 07:00:05;;;;;;;11.70;10.50;;;;;;;27.83;47.54;99973.51;107788;1256;61115;-77
2023/07/03 07:02:32;;;;;;;11.40;10.30;;;;;;;28.00;47.09;99971.36;107744;1256;61215;-78
2023/07/03 07:04:59;;;;;;;10.80;9.10;;;;;;;28.15;46.53;99968.16;107870;1256;67412;-77
2023/07/03 07:07:31;;;;;;;10.10;9.10;;;;;;;28.29;46.12;99972.33;107795;1256;73074;-78
2023/07/03 07:10:00;;;;;;;11.60;9.20;;;;;;;28.38;45.81;99974.23;107979;1260;72645;-78
2023/07/03 07:12:31;;;;;;;11.20;8.90;;;;;;;28.41;45.28;99974.41;107877;1257;60291;-78
2023/07/03 07:15:07;;;;;;;9.40;8.40;;;;;;;28.42;45.44;99975.43;108105;1256;59522;-79
2023/07/03 07:17:42;;;;;;;9.50;8.50;;;;;;;28.46;45.30;99976.83;108009;1257;74830;-77
2023/07/03 07:20:19;;;;;;;9.80;8.80;;;;;;;28.54;45.10;99978.39;108318;1256;71606;-78
2023/07/03 07:22:48;;;;;;;9.60;8.50;;;;;;;28.59;44.67;99978.09;107789;1258;72725;-78
2023/07/03 07:25:15;;;;;;;8.80;7.90;;;;;;;28.65;44.67;99983.90;107815;1256;61164;-79
2023/07/03 07:27:42;;;;;;;7.30;6.50;;;;;;;28.76;44.22;99985.14;107741;1257;61245;-77
2023/07/03 07:30:11;;;;;;;8.00;6.30;;;;;;;28.85;43.00;99984.73;107783;1256;66153;-77
2023/07/03 07:32:38;;;;;;;7.20;5.70;;;;;;;28.95;42.15;99982.93;107904;1256;64208;-78
2023/07/03 07:35:07;;;;;;;9.20;5.90;;;;;;;29.05;41.41;99989.21;107873;1256;64058;-78
2023/07/03 07:37:34;;;;;;;7.00;5.40;;;;;;;29.10;40.08;99986.61;107938;1256;61954;-78
2023/07/03 07:40:00;;;;;;;7.70;5.70;;;;;;;29.14;39.87;99983.30;107823;1256;61222;-78
2023/07/03 07:42:29;;;;;;;7.40;6.30;;;;;;;29.23;40.37;99989.87;107867;1256;65833;-78
2023/07/03 07:44:56;;;;;;;6.40;5.80;;;;;;;29.33;40.10;99990.86;107879;1256;64003;-78
2023/07/03 07:47:25;;;;;;;7.00;6.00;;;;;;;29.34;39.64;99992.03;107889;1260;64067;-79
2023/07/03 07:49:54;;;;;;;8.10;5.90;;;;;;;29.35;39.62;99994.63;107840;1256;61030;-79
2023/07/03 07:52:23;;;;;;;6.90;5.50;;;;;;;29.46;39.34;99997.58;107847;1258;61240;-78
2023/07/03 07:54:55;;;;;;;7.40;5.90;;;;;;;29.59;38.93;100001.07;107876;1257;65748;-79
2023/07/03 07:57:22;;;;;;;6.50;5.90;;;;;;;29.73;38.85;100002.67;107840;1256;64105;-77
2023/07/03 07:59:51;;;;;;;6.70;5.60;;;;;;;29.86;38.27;100007.64;107825;1256;62664;-76
2023/07/03 08:02:18;;;;;;;7.60;5.40;;;;;;;29.95;37.31;100007.11;107862;1256;62048;-77
2023/07/03 08:04:45;;;;;;;7.00;4.50;;;;;;;30.05;37.34;100009.58;107884;1257;61162;-79
2023/07/03 08:07:12;;;;;;;7.10;4.10;;;;;;;30.16;36.69;100009.20;107830;1256;65940;-79
2023/07/03 08:09:40;;;;;;;5.80;4.60;;;;;;;30.22;35.77;100009.89;107845;1256;64006;-77
2023/07/03 08:12:08;;;;;;;5.80;4.80;;;;;;;30.23;35.83;100006.20;107815;1256;64106;-77
2023/07/03 08:14:37;;;;;;;7.40;5.00;;;;;;;30.25;36.04;100009.88;107890;1256;61229;-78
2023/07/03 08:17:05;;;;;;;9.30;5.60;;;;;;;30.26;36.42;100012.77;107882;1256;61141;-79
2023/07/03 08:19:32;;;;;;;6.30;5.30;;;;;;;30.32;37.01;100014.23;107867;1257;64768;-82
2023/07/03 08:21:59;;;;;;;5.70;5.00;;;;;;;30.49;36.62;100015.60;107943;1256;63835;-78
2023/07/03 08:24:25;;;;;;;6.80;5.10;;;;;;;30.72;36.42;100016.13;107836;1256;64176;-78
2023/07/03 08:26:54;;;;;;;6.40;5.00;;;;;;;30.87;36.06;100017.13;107813;1256;61025;-78
2023/07/03 08:29:21;;;;;;;7.80;5.10;;;;;;;30.94;35.17;100017.05;107936;1257;61174;-80
2023/07/03 08:31:49;;;;;;;7.00;5.60;;;;;;;30.94;35.00;100021.23;107902;1256;65274;-79
2023/07/03 08:34:17;;;;;;;7.00;5.80;;;;;;;30.92;35.33;100025.02;107953;1256;64100;-77
2023/07/03 08:36:45;;;;;;;6.50;5.00;;;;;;;30.90;35.50;100026.30;107889;1257;62772;-78
2023/07/03 08:39:15;;;;;;;7.80;5.40;;;;;;;30.86;34.87;100026.19;107900;1256;61407;-80
2023/07/03 08:41:49;;;;;;;5.70;4.80;;;;;;;30.87;35.17;100023.34;107918;1256;61162;-80
2023/07/03 08:44:16;;;;;;;6.90;4.50;;;;;;;30.87;34.81;100025.39;107903;1257;64578;-78
2023/07/03 08:46:43;;;;;;;7.00;5.20;;;;;;;30.88;35.25;100026.88;107820;1256;64290;-79
2023/07/03 08:49:16;;;;;;;8.30;5.40;;;;;;;30.92;35.00;100031.02;107855;1257;63875;-79
2023/07/03 08:51:43;;;;;;;6.40;5.60;;;;;;;30.88;35.21;100034.04;107557;1256;61353;-78
2023/07/03 08:54:17;;;;;;;6.70;4.90;;;;;;;30.84;35.73;100034.55;107909;1256;61116;-79
2023/07/03 08:56:44;;;;;;;6.90;5.50;;;;;;;30.82;35.63;100038.42;107892;1256;65848;-79
2023/07/03 08:59:10;;;;;;;8.50;6.20;;;;;;;30.83;35.49;100037.55;107885;1256;63820;-79
2023/07/03 09:02:00;;;;;;;7.00;6.20;;;;;;;30.84;35.59;100035.27;107868;1256;64182;-79
2023/07/03 09:04:49;;;;;;;7.20;6.10;;;;;;;30.79;35.61;100036.41;107877;1256;59196;-79
2023/07/03 09:07:49;;;;;;;8.30;5.80;;;;;;;30.69;35.62;100035.61;107830;1256;59768;-79
2023/07/03 09:10:36;;;;;;;7.20;5.70;;;;;;;30.61;35.60;100037.40;107865;1256;66600;-80
2023/07/03 09:13:10;;;;;;;6.10;5.50;;;;;;;30.52;35.71;100037.55;107849;1256;64282;-79
2023/07/03 09:15:45;;;;;;;7.00;5.40;;;;;;;30.46;35.93;100038.69;107762;1256;64087;-79
2023/07/03 09:18:17;;;;;;;8.40;5.10;;;;;;;30.46;35.58;100037.34;107815;1257;61299;-79
2023/07/03 09:20:47;;;;;;;7.20;5.60;;;;;;;30.43;35.92;100038.02;107986;1256;61235;-79
2023/07/03 09:23:28;;;;;;;8.20;5.90;;;;;;;30.38;36.35;100039.23;107751;1257;65930;-79
2023/07/03 09:25:58;;;;;;;9.60;6.70;;;;;;;30.33;36.43;100040.52;107839;1256;64202;-79
2023/07/03 09:28:33;;;;;;;12.10;6.10;;;;;;;30.38;36.12;100040.64;107900;1256;64077;-79
2023/07/03 09:31:00;;;;;;;8.60;5.80;;;;;;;30.45;36.35;100041.45;107680;1256;61131;-78
2023/07/03 09:33:32;;;;;;;6.50;5.40;;;;;;;30.54;36.55;100039.34;107852;1256;61094;-79
2023/07/03 09:36:03;;;;;;;6.70;5.70;;;;;;;30.74;36.16;100042.91;107860;1256;66996;-77
2023/07/03 09:38:34;;;;;;;6.40;5.50;;;;;;;30.90;35.35;100038.77;107795;1256;64124;-79
2023/07/03 09:41:03;;;;;;;9.50;6.00;;;;;;;30.96;35.34;100041.30;107827;1256;62769;-80
2023/07/03 09:43:31;;;;;;;6.30;5.70;;;;;;;30.96;35.20;100041.13;107869;1260;62813;-81
2023/07/03 09:46:09;;;;;;;6.90;5.10;;;;;;;30.92;35.08;100045.11;107975;1256;61248;-80
2023/07/03 09:48:36;;;;;;;6.60;5.60;;;;;;;30.92;35.48;100047.25;107918;1256;65947;-81
2023/07/03 09:51:22;;;;;;;6.60;5.40;;;;;;;30.94;35.52;100047.15;107934;1259;64106;-80
2023/07/03 09:53:49;;;;;;;6.30;5.60;;;;;;;30.99;35.29;100047.48;107761;1256;64090;-79
2023/07/03 09:56:23;;;;;;;6.00;5.30;;;;;;;31.11;35.15;100046.36;107820;1256;61074;-79
2023/07/03 09:58:51;;;;;;;6.00;5.40;;;;;;;31.31;35.14;100046.23;107771;1257;60173;-78
2023/07/03 10:01:28;;;;;;;8.50;5.40;;;;;;;31.51;35.20;100043.27;107893;1256;66117;-80
2023/07/03 10:04:05;;;;;;;6.50;5.00;;;;;;;31.72;35.14;100046.17;107871;1256;64194;-80
2023/07/03 10:07:05;;;;;;;7.30;5.20;;;;;;;31.91;34.29;100043.42;107855;1256;64154;-78
2023/07/03 10:09:34;;;;;;;7.90;5.50;;;;;;;31.88;33.30;100041.86;107791;1257;61219;-79
2023/07/03 10:12:24;;;;;;;9.50;5.70;;;;;;;31.67;33.69;100044.33;107679;1256;61117;-82
2023/07/03 10:14:55;;;;;;;8.00;5.40;;;;;;;31.60;33.68;100043.71;107890;1256;65895;-80
2023/07/03 10:17:33;;;;;;;8.00;5.30;;;;;;;31.62;33.56;100043.62;107904;1256;63995;-80
2023/07/03 10:20:03;;;;;;;7.30;5.00;;;;;;;31.70;33.41;100045.09;107913;1256;62832;-79
2023/07/03 10:22:31;;;;;;;7.10;5.40;;;;;;;31.81;33.50;100044.00;107919;1256;59020;-76
2023/07/03 10:25:01;;;;;;;6.40;4.90;;;;;;;31.93;33.37;100045.61;107765;1256;61144;-79
2023/07/03 10:27:28;;;;;;;6.20;5.00;;;;;;;32.02;32.89;100049.05;107930;1256;66200;-79
2023/07/03 10:29:56;;;;;;;5.40;4.50;;;;;;;31.97;32.98;100049.11;107818;1257;65423;-78
2023/07/03 10:32:25;;;;;;;7.70;4.80;;;;;;;31.83;33.14;100049.11;107637;1257;64406;-79
2023/07/03 10:35:02;;;;;;;7.70;5.40;;;;;;;31.72;33.26;100049.95;107718;1256;60302;-80
2023/07/03 10:37:32;;;;;;;5.60;4.70;;;;;;;31.63;33.72;100049.98;107790;1256;61115;-82
2023/07/03 10:40:09;;;;;;;8.80;4.80;;;;;;;31.58;33.87;100049.09;107793;1256;64908;-79
2023/07/03 10:42:41;;;;;;;7.70;4.80;;;;;;;31.57;33.87;100051.48;107924;1256;63989;-81
2023/07/03 10:45:09;;;;;;;9.10;5.90;;;;;;;31.64;33.87;100055.50;107737;1256;62887;-79
2023/07/03 10:47:43;;;;;;;7.30;4.80;;;;;;;31.71;33.67;100054.23;107930;1256;61484;-80
2023/07/03 10:50:13;;;;;;;5.50;4.80;;;;;;;31.73;33.49;100058.16;107920;1256;61152;-80
2023/07/03 10:53:02;;;;;;;5.90;5.30;;;;;;;31.69;33.64;100060.09;107853;1256;64730;-79
2023/07/03 10:55:51;;;;;;;7.20;5.10;;;;;;;31.64;34.00;100053.20;107822;1256;64602;-80
2023/07/03 10:58:26;;;;;;;6.50;4.50;;;;;;;31.50;34.51;100058.73;107809;1256;64252;-80
2023/07/03 11:01:05;;;;;;;6.90;4.70;;;;;;;31.26;34.54;100058.58;107922;1256;61303;-79
2023/07/03 11:03:55;;;;;;;7.20;4.80;;;;;;;31.15;34.87;100056.56;107941;1256;61250;-81
2023/07/03 11:06:57;;;;;;;6.50;4.60;;;;;;;31.22;34.93;100053.89;107787;1256;65838;-81
2023/07/03 11:09:30;;;;;;;6.20;4.70;;;;;;;31.34;34.83;100049.68;107869;1256;63987;-81
2023/07/03 11:12:25;;;;;;;5.60;4.10;;;;;;;31.38;34.42;100048.55;108023;1256;64069;-79
2023/07/03 11:15:28;;;;;;;8.00;4.70;;;;;;;31.40;34.39;100050.58;107741;1256;61152;-80
2023/07/03 11:18:21;;;;;;;6.10;4.60;;;;;;;31.36;34.90;100048.88;107807;1256;61250;-80
2023/07/03 11:21:05;;;;;;;5.20;4.70;;;;;;;31.41;34.73;100048.52;107878;1256;66107;-80
2023/07/03 11:24:11;;;;;;;7.00;5.10;;;;;;;31.39;34.46;100046.26;107943;1256;64170;-79
2023/07/03 11:27:06;;;;;;;5.40;4.60;;;;;;;31.34;34.87;100045.20;107821;1260;65093;-79
2023/07/03 11:29:36;;;;;;;6.70;5.20;;;;;;;31.34;34.95;100042.05;107829;1256;61150;-79
2023/07/03 11:32:04;;;;;;;5.90;4.50;;;;;;;31.36;34.49;100041.23;107943;1257;61145;-80
2023/07/03 11:34:31;;;;;;;5.70;4.10;;;;;;;31.31;34.59;100042.44;107539;1256;172124;-79